Donnelly, ID (83615)

2:26 PM MST on December 17, 2014 (GMT -0700)
Railroad Village | Change Station
CLOSE
Current Station
Personal Weather Station
Location: Donnelly, ID
Elevation: 4872 ft
Nearby Weather Stations

Elev 4872 ft 44.70 °N, 116.08 °W | Updated 2 seconds ago

Overcast
Overcast
37.4 °F
Feels Like 37 °F
N
0.0
Wind Variable Wind from North
Gusts 3.4 mph

Today
High -- | Low -- °F
--% Chance of Precip.
Yesterday
High -- | Low -- °F
Precip. -- in
8:16 AM 5:04 PM
Waning Crescent, 19% visible
Pressure 29.97 in
Visibility 10.0 miles
Clouds Overcast 7000 ft
Windchill 37 °F
Dew Point 16 °F
Humidity 42%
Rainfall 0.00 in
Snow Depth Not available.
UV 0 out of 12
Pollen .10 out of 12
Air Quality Not available.
Flu Activity Not available.
METAR KMYL 172051Z AUTO 00000KT 10SM OVC070 01/M02 A2990 RMK AO2 SLP149 T00111022 57010

More Conditions Fewer Conditions

Pressure 29.97 in
Visibility 10.0 miles
Clouds Overcast 7000 ft
Windchill 37 °F
Dew Point 16 °F
Humidity 42%
Rainfall 0.00 in
Snow Depth Not available.
UV 0 out of 12
Pollen .10 out of 12
Air Quality Not available.
Flu Activity Not available.
METAR KMYL 172051Z AUTO 00000KT 10SM OVC070 01/M02 A2990 RMK AO2 SLP149 T00111022 57010

More Conditions Fewer Conditions

10-Day Weather Forecast

Almanac

Astronomy

Dec. 17, 2014 Rise Set
Actual Time
Civil Twilight
Nautical Twilight
Astronomical Twilight
Moon
Length of Visible Light
Length of Day
Tomorrow will be .
, % of the Moon is Illuminated

Today's Extremes

State Highs State Lows

Community

WunderPhotos

Upload Photos

1,778,806 photos uploaded!

WunderBlogs® & News

Nearby

Air Quality

  Air Quality AQ Index Pollutant
Not available.

Snow Depth

Station Depth Elevation

Earthquake Activity

City Distance Mag. Time & Date
Minimum magnitude displayed is 2.5.

Coastal Water Temperatures

Place Temperature

Nearby Weather Stations